createdAt,value
2019-05-28T00:01:25.085Z,1.60
2019-05-28T00:03:52.567Z,1.50
2019-05-28T00:06:20.482Z,1.60
2019-05-28T00:08:47.930Z,1.47
2019-05-28T00:11:15.451Z,1.50
2019-05-28T00:13:42.854Z,1.30
2019-05-28T00:16:10.401Z,1.60
2019-05-28T00:18:37.770Z,1.30
2019-05-28T00:21:05.248Z,1.70
2019-05-28T00:23:32.751Z,1.50
2019-05-28T00:26:00.213Z,1.50
2019-05-28T00:28:27.698Z,1.40
2019-05-28T00:30:55.147Z,1.63
2019-05-28T00:33:22.606Z,1.50
2019-05-28T00:35:50.061Z,2.00
2019-05-28T00:38:17.515Z,2.60
2019-05-28T00:40:45.333Z,1.80
2019-05-28T00:43:12.823Z,1.93
2019-05-28T00:45:40.287Z,1.93
2019-05-28T00:48:07.745Z,1.70
2019-05-28T00:50:35.271Z,2.20
2019-05-28T00:53:02.676Z,1.60
2019-05-28T00:55:30.263Z,2.07
2019-05-28T00:57:58.834Z,2.90
2019-05-28T01:00:46.849Z,1.87
2019-05-28T01:03:14.871Z,2.07
2019-05-28T01:05:42.355Z,1.70
2019-05-28T01:08:09.815Z,2.07
2019-05-28T01:10:37.266Z,1.97
2019-05-28T01:13:05.260Z,2.20
2019-05-28T01:15:32.716Z,3.50
2019-05-28T01:18:00.317Z,2.70
2019-05-28T01:20:27.771Z,2.23
2019-05-28T01:22:55.263Z,2.47
2019-05-28T01:25:23.059Z,2.00
2019-05-28T01:27:50.688Z,2.27
2019-05-28T01:30:18.140Z,1.67
2019-05-28T01:32:45.992Z,2.90
2019-05-28T01:35:13.556Z,2.27
2019-05-28T01:37:41.045Z,1.73
2019-05-28T01:40:09.498Z,2.33
2019-05-28T01:42:37.015Z,2.43
2019-05-28T01:45:05.378Z,1.70
2019-05-28T01:47:32.826Z,2.47
2019-05-28T01:50:00.246Z,2.30
2019-05-28T01:52:27.702Z,2.23
2019-05-28T01:54:55.171Z,2.47
2019-05-28T01:57:22.643Z,3.80
2019-05-28T01:59:50.085Z,2.00
2019-05-28T02:02:17.543Z,2.50
2019-05-28T02:04:45.076Z,2.27
2019-05-28T02:07:12.882Z,2.50
2019-05-28T02:09:40.408Z,2.00
2019-05-28T02:12:07.814Z,2.53
2019-05-28T02:14:35.289Z,2.40
2019-05-28T02:17:03.058Z,2.27
2019-05-28T02:19:30.517Z,1.87
2019-05-28T02:21:58.358Z,2.10
2019-05-28T02:24:25.890Z,1.90
2019-05-28T02:26:53.347Z,2.40
2019-05-28T02:29:20.816Z,2.00
2019-05-28T02:31:48.619Z,3.60
2019-05-28T02:34:16.118Z,3.63
2019-05-28T02:36:43.540Z,2.90
2019-05-28T02:39:11.013Z,2.90
2019-05-28T02:41:38.443Z,2.93
2019-05-28T02:44:05.868Z,3.10
2019-05-28T02:46:33.336Z,2.90
2019-05-28T02:49:00.792Z,2.83
2019-05-28T02:51:28.409Z,2.87
2019-05-28T02:53:55.831Z,2.77
2019-05-28T02:56:25.464Z,3.77
2019-05-28T02:58:54.503Z,3.33
2019-05-28T03:01:23.619Z,3.97
2019-05-28T03:03:54.510Z,6.17
2019-05-28T03:06:24.095Z,6.67
2019-05-28T03:08:54.400Z,4.43
2019-05-28T03:11:21.881Z,5.47
2019-05-28T03:13:49.386Z,5.13
2019-05-28T03:16:20.515Z,4.20
2019-05-28T03:18:50.967Z,6.00
2019-05-28T03:21:20.060Z,4.73
2019-05-28T03:23:47.710Z,3.77
2019-05-28T03:26:15.428Z,4.23
2019-05-28T03:28:42.886Z,4.23
2019-05-28T03:31:10.601Z,3.70
2019-05-28T03:33:38.093Z,3.97
2019-05-28T03:36:09.439Z,3.20
2019-05-28T03:38:38.830Z,2.90
2019-05-28T03:41:06.288Z,3.70
2019-05-28T03:43:33.774Z,3.00
2019-05-28T03:46:01.244Z,3.67
2019-05-28T03:48:28.716Z,2.73
2019-05-28T03:50:56.154Z,3.57
2019-05-28T03:53:23.646Z,2.93
2019-05-28T03:55:51.451Z,2.50
2019-05-28T03:58:18.964Z,2.67
2019-05-28T04:00:46.424Z,3.47
2019-05-28T04:03:14.128Z,3.00
2019-05-28T04:05:41.821Z,3.27
2019-05-28T04:08:10.385Z,3.20
2019-05-28T04:10:38.083Z,4.00
2019-05-28T04:13:05.554Z,3.93
2019-05-28T04:15:33.180Z,4.67
2019-05-28T04:18:00.672Z,4.40
2019-05-28T04:20:28.198Z,4.07
2019-05-28T04:22:55.637Z,4.30
2019-05-28T04:25:23.140Z,4.33
2019-05-28T04:27:50.911Z,4.60
2019-05-28T04:30:19.036Z,4.23
2019-05-28T04:32:46.829Z,4.93
2019-05-28T04:35:14.503Z,4.60
2019-05-28T04:37:42.343Z,3.60
2019-05-28T04:40:09.869Z,4.40
2019-05-28T04:42:37.321Z,4.00
2019-05-28T04:45:05.347Z,4.53
2019-05-28T04:47:32.810Z,4.00
2019-05-28T04:50:00.626Z,5.87
2019-05-28T04:52:30.658Z,4.20
2019-05-28T04:54:57.763Z,4.57
2019-05-28T04:57:25.281Z,5.53
2019-05-28T04:59:52.764Z,4.77
2019-05-28T05:02:20.209Z,5.37
2019-05-28T05:04:47.643Z,4.83
2019-05-28T05:07:15.129Z,5.53
2019-05-28T05:09:42.616Z,5.70
2019-05-28T05:12:10.130Z,5.40
2019-05-28T05:14:37.658Z,6.57
2019-05-28T05:17:05.505Z,5.90
2019-05-28T05:19:32.928Z,5.80
2019-05-28T05:22:00.389Z,6.10
2019-05-28T05:24:30.938Z,6.50
2019-05-28T05:26:58.394Z,6.77
2019-05-28T05:29:25.830Z,6.20
2019-05-28T05:31:53.268Z,6.63
2019-05-28T05:34:20.777Z,5.70
2019-05-28T05:36:48.265Z,6.23
2019-05-28T05:39:16.100Z,8.73
2019-05-28T05:41:43.699Z,5.90
2019-05-28T05:44:11.847Z,6.40
2019-05-28T05:46:39.346Z,6.33
2019-05-28T05:49:06.828Z,6.13
2019-05-28T05:51:34.297Z,6.17
2019-05-28T05:54:01.802Z,6.00
2019-05-28T05:56:29.298Z,5.30
2019-05-28T05:58:56.817Z,7.20
2019-05-28T06:01:24.279Z,6.80
2019-05-28T06:03:51.755Z,8.43
2019-05-28T06:06:19.227Z,6.57
2019-05-28T06:08:46.758Z,8.73
2019-05-28T06:11:14.258Z,5.80
2019-05-28T06:13:41.701Z,5.40
2019-05-28T06:16:09.169Z,5.50
2019-05-28T06:18:36.674Z,6.20
2019-05-28T06:21:11.720Z,4.83
2019-05-28T06:23:33.679Z,4.80
2019-05-28T06:26:01.196Z,6.10
2019-05-28T06:28:28.976Z,4.77
2019-05-28T06:30:56.593Z,5.40
2019-05-28T06:33:24.100Z,7.53
2019-05-28T06:35:51.632Z,7.80
2019-05-28T06:38:19.307Z,7.67
2019-05-28T06:40:47.102Z,8.80
2019-05-28T06:43:14.639Z,8.47
2019-05-28T06:45:42.142Z,8.63
2019-05-28T06:48:09.566Z,7.80
2019-05-28T06:50:37.068Z,7.97
2019-05-28T06:53:04.575Z,8.53
2019-05-28T06:55:32.079Z,8.37
2019-05-28T06:57:59.975Z,8.33
2019-05-28T07:00:27.626Z,8.27
2019-05-28T07:02:55.330Z,10.73
2019-05-28T07:05:22.919Z,9.33
2019-05-28T07:07:50.393Z,8.47
2019-05-28T07:10:20.100Z,9.93
2019-05-28T07:12:47.521Z,10.87
2019-05-28T07:15:14.992Z,10.07
2019-05-28T07:17:42.435Z,9.90
2019-05-28T07:20:10.506Z,11.07
2019-05-28T07:22:38.033Z,9.97
2019-05-28T07:25:05.913Z,10.33
2019-05-28T07:27:33.421Z,9.17
2019-05-28T07:30:00.890Z,11.23
2019-05-28T07:32:28.841Z,9.90
2019-05-28T07:34:56.291Z,9.40
2019-05-28T07:37:23.758Z,9.97
2019-05-28T07:39:51.217Z,8.93
2019-05-28T07:42:31.796Z,9.87
2019-05-28T07:44:47.975Z,10.50
2019-05-28T07:47:15.465Z,9.37
2019-05-28T07:49:42.951Z,9.73
2019-05-28T07:52:10.443Z,8.57
2019-05-28T07:54:39.474Z,8.17
2019-05-28T07:57:07.145Z,8.43
2019-05-28T07:59:34.681Z,7.90
2019-05-28T08:02:02.143Z,10.77
2019-05-28T08:04:44.288Z,10.73
2019-05-28T08:06:58.874Z,9.73
2019-05-28T08:09:26.416Z,8.77
2019-05-28T08:11:53.977Z,9.70
2019-05-28T08:14:21.434Z,7.60
2019-05-28T08:16:52.749Z,11.10
2019-05-28T08:19:18.176Z,8.73
2019-05-28T08:21:45.648Z,7.10
2019-05-28T08:24:13.221Z,7.30
2019-05-28T08:26:40.714Z,7.80
2019-05-28T08:29:08.523Z,8.30
2019-05-28T08:31:36.037Z,7.20
2019-05-28T08:34:03.508Z,9.20
2019-05-28T08:36:31.003Z,8.77
2019-05-28T08:38:58.497Z,8.03
2019-05-28T08:41:25.975Z,8.33
2019-05-28T08:43:53.531Z,9.97
2019-05-28T08:46:21.329Z,8.20
2019-05-28T08:48:48.886Z,7.03
2019-05-28T08:51:16.791Z,8.83
2019-05-28T08:53:44.295Z,5.67
2019-05-28T08:56:11.828Z,6.27
2019-05-28T08:58:39.300Z,5.60
2019-05-28T09:01:06.781Z,5.10
2019-05-28T09:03:34.818Z,5.37
2019-05-28T09:06:02.338Z,6.23
2019-05-28T09:08:39.229Z,5.27
2019-05-28T09:10:59.268Z,5.33
2019-05-28T09:13:26.776Z,5.63
2019-05-28T09:15:54.316Z,7.53
2019-05-28T09:18:21.780Z,4.87
2019-05-28T09:20:49.391Z,5.00
2019-05-28T09:23:16.883Z,4.80
2019-05-28T09:25:44.498Z,5.30
2019-05-28T09:28:28.284Z,9.30
2019-05-28T09:30:41.254Z,6.57
2019-05-28T09:33:08.753Z,7.60
2019-05-28T09:35:44.712Z,7.77
2019-05-28T09:38:05.518Z,7.40
2019-05-28T09:40:49.074Z,9.23
2019-05-28T09:43:02.658Z,10.80
2019-05-28T09:45:30.153Z,9.97
2019-05-28T09:47:57.694Z,8.87
2019-05-28T09:50:30.745Z,9.40
2019-05-28T09:52:55.534Z,7.03
2019-05-28T09:55:23.164Z,6.77
2019-05-28T09:57:50.676Z,7.00
2019-05-28T10:00:21.736Z,7.30
2019-05-28T10:02:50.070Z,4.77
2019-05-28T10:05:18.072Z,4.50
2019-05-28T10:07:45.569Z,3.53
2019-05-28T10:10:13.048Z,3.83
2019-05-28T10:12:40.901Z,3.73
2019-05-28T10:15:09.181Z,4.90
2019-05-28T10:17:36.714Z,4.20
2019-05-28T10:20:07.338Z,4.60
2019-05-28T10:22:34.865Z,4.40
2019-05-28T10:25:02.395Z,5.13
2019-05-28T10:27:29.942Z,4.73
2019-05-28T10:29:57.433Z,4.90
2019-05-28T10:32:24.967Z,4.50
2019-05-28T10:35:03.067Z,4.27
2019-05-28T10:37:21.814Z,4.27
2019-05-28T10:39:49.784Z,4.57
2019-05-28T10:42:17.332Z,5.33
2019-05-28T10:44:45.332Z,5.87
2019-05-28T10:47:13.034Z,5.90
2019-05-28T10:49:43.409Z,4.70
2019-05-28T10:52:10.843Z,5.53
2019-05-28T10:54:38.340Z,6.13
2019-05-28T10:57:05.909Z,6.00
2019-05-28T10:59:33.357Z,6.30
2019-05-28T11:02:00.942Z,5.77
2019-05-28T11:04:28.829Z,6.40
2019-05-28T11:06:56.360Z,6.30
2019-05-28T11:09:23.880Z,7.03
2019-05-28T11:11:51.398Z,6.30
2019-05-28T11:14:18.823Z,5.87
2019-05-28T11:16:46.352Z,5.40
2019-05-28T11:19:14.251Z,5.20
2019-05-28T11:21:41.836Z,5.03
2019-05-28T11:24:09.332Z,3.77
2019-05-28T11:26:36.947Z,4.40
2019-05-28T11:29:04.745Z,5.50
2019-05-28T11:31:32.258Z,3.67
2019-05-28T11:33:59.805Z,3.30
2019-05-28T11:36:27.647Z,2.33
2019-05-28T11:38:55.161Z,1.90
2019-05-28T11:41:22.623Z,1.90
2019-05-28T11:43:50.176Z,2.00
2019-05-28T11:46:17.998Z,2.43
2019-05-28T11:48:45.549Z,3.03
2019-05-28T11:51:13.053Z,1.97
2019-05-28T11:53:40.556Z,1.87
2019-05-28T11:56:08.029Z,1.40
2019-05-28T11:58:35.850Z,1.60
2019-05-28T12:01:03.355Z,2.60
2019-05-28T12:03:30.888Z,1.67
2019-05-28T12:05:58.387Z,1.67
2019-05-28T12:08:26.201Z,1.57
2019-05-28T12:10:53.713Z,1.67
2019-05-28T12:13:21.197Z,1.27
2019-05-28T12:15:48.783Z,0.80
2019-05-28T12:18:16.289Z,1.40
2019-05-28T12:20:43.814Z,1.30
2019-05-28T12:23:12.217Z,1.20
2019-05-28T12:25:39.943Z,2.20
2019-05-28T12:28:07.464Z,1.90
2019-05-28T12:30:35.141Z,2.27
2019-05-28T12:33:02.901Z,1.80
2019-05-28T12:35:30.604Z,1.97
2019-05-28T12:38:19.510Z,2.80
2019-05-28T12:40:51.689Z,3.07
2019-05-28T12:43:19.241Z,2.03
2019-05-28T12:45:47.879Z,1.73
2019-05-28T12:48:15.341Z,2.30
2019-05-28T12:50:42.995Z,1.73
2019-05-28T12:53:10.658Z,1.10
2019-05-28T12:55:38.191Z,1.40
2019-05-28T12:58:05.944Z,1.87
2019-05-28T13:00:33.721Z,1.77
2019-05-28T13:03:01.242Z,1.40
2019-05-28T13:05:29.912Z,2.70
2019-05-28T13:08:08.366Z,1.57
2019-05-28T13:10:26.878Z,1.53
2019-05-28T13:12:54.435Z,1.50
2019-05-28T13:15:22.586Z,2.53
2019-05-28T13:17:50.128Z,2.40
2019-05-28T13:20:19.065Z,3.10
2019-05-28T13:22:46.784Z,1.73
2019-05-28T13:25:14.615Z,1.20
2019-05-28T13:27:42.217Z,4.07
2019-05-28T13:30:12.906Z,1.27
2019-05-28T13:32:41.089Z,1.43
2019-05-28T13:35:10.535Z,1.10
2019-05-28T13:37:38.101Z,1.20
2019-05-28T13:40:06.305Z,2.20
2019-05-28T13:42:33.821Z,2.33
2019-05-28T13:45:01.385Z,1.13
2019-05-28T13:47:33.820Z,1.30
2019-05-28T13:49:58.314Z,2.30
2019-05-28T13:52:25.809Z,1.53
2019-05-28T13:54:53.392Z,1.83
2019-05-28T13:57:20.923Z,4.03
2019-05-28T13:59:48.473Z,2.00
2019-05-28T14:02:16.091Z,2.60
2019-05-28T14:04:43.650Z,1.93
2019-05-28T14:07:11.098Z,1.53
2019-05-28T14:09:38.639Z,1.90
2019-05-28T14:12:06.271Z,3.43
2019-05-28T14:14:34.153Z,3.10
2019-05-28T14:17:01.790Z,1.77
2019-05-28T14:19:29.652Z,2.93
2019-05-28T14:21:57.311Z,2.50
2019-05-28T14:24:24.877Z,1.40
2019-05-28T14:26:52.323Z,1.17
2019-05-28T14:29:19.816Z,1.00
2019-05-28T14:31:47.320Z,2.00
2019-05-28T14:34:14.867Z,1.43
2019-05-28T14:36:42.545Z,1.67
2019-05-28T14:39:10.829Z,1.87
2019-05-28T14:41:38.628Z,1.60
2019-05-28T14:44:06.733Z,3.60
2019-05-28T14:46:34.628Z,3.17
2019-05-28T14:49:02.442Z,1.80
2019-05-28T14:51:29.919Z,1.73
2019-05-28T14:53:57.412Z,2.30
2019-05-28T14:56:24.872Z,1.63
2019-05-28T14:58:52.370Z,2.17
2019-05-28T15:01:20.013Z,1.83
2019-05-28T15:03:47.842Z,2.73
2019-05-28T15:06:15.294Z,1.93
2019-05-28T15:08:42.807Z,3.87
2019-05-28T15:11:10.316Z,1.30
2019-05-28T15:13:38.308Z,1.63
2019-05-28T15:16:05.916Z,3.13
2019-05-28T15:18:33.486Z,1.60
2019-05-28T15:21:01.013Z,1.20
2019-05-28T15:23:28.561Z,1.43
2019-05-28T15:25:56.159Z,2.20
2019-05-28T15:28:24.101Z,1.70
2019-05-28T15:30:52.060Z,1.57
2019-05-28T15:33:19.631Z,1.20
2019-05-28T15:35:47.615Z,1.43
2019-05-28T15:38:15.183Z,1.40
2019-05-28T15:40:42.947Z,1.33
2019-05-28T15:43:10.398Z,1.63
2019-05-28T15:45:37.919Z,0.90
2019-05-28T15:48:05.547Z,1.23
2019-05-28T15:50:33.667Z,0.90
2019-05-28T15:53:01.429Z,1.03
2019-05-28T15:55:29.163Z,3.00
2019-05-28T15:57:56.745Z,1.40
2019-05-28T16:00:25.240Z,1.90
2019-05-28T16:02:52.862Z,1.83
2019-05-28T16:05:20.595Z,1.23
2019-05-28T16:07:48.292Z,1.53
2019-05-28T16:10:17.360Z,1.47
2019-05-28T16:12:45.077Z,1.23
2019-05-28T16:15:13.071Z,1.30
2019-05-28T16:17:40.776Z,2.63
2019-05-28T16:20:09.247Z,3.13
2019-05-28T16:22:36.822Z,1.53
2019-05-28T16:25:07.823Z,3.20
2019-05-28T16:27:35.461Z,1.10
2019-05-28T16:30:03.992Z,0.90
2019-05-28T16:32:32.602Z,1.47
2019-05-28T16:35:00.307Z,3.50
2019-05-28T16:37:28.186Z,1.13
2019-05-28T16:40:11.269Z,2.70
2019-05-28T16:42:25.234Z,1.23
2019-05-28T16:44:56.188Z,2.00
2019-05-28T16:47:22.698Z,3.00
2019-05-28T16:49:50.393Z,1.37
2019-05-28T16:52:17.925Z,1.93
2019-05-28T16:54:45.467Z,1.70
2019-05-28T16:57:13.081Z,5.00
2019-05-28T16:59:40.641Z,1.43
2019-05-28T17:02:08.312Z,1.30
2019-05-28T17:04:35.978Z,1.30
2019-05-28T17:07:03.544Z,3.07
2019-05-28T17:09:31.283Z,1.07
2019-05-28T17:11:58.881Z,1.53
2019-05-28T17:14:27.255Z,1.17
2019-05-28T17:16:54.994Z,0.83
2019-05-28T17:19:22.589Z,3.07
2019-05-28T17:21:50.302Z,1.10
2019-05-28T17:24:17.966Z,1.33
2019-05-28T17:26:45.500Z,1.33
2019-05-28T17:29:13.628Z,1.00
2019-05-28T17:31:41.186Z,1.50
2019-05-28T17:34:08.857Z,1.33
2019-05-28T17:36:36.844Z,1.20
2019-05-28T17:39:06.621Z,1.37
2019-05-28T17:41:34.748Z,2.50
2019-05-28T17:44:02.407Z,2.50
2019-05-28T17:46:30.055Z,2.53
2019-05-28T17:48:57.782Z,3.67
2019-05-28T17:51:25.677Z,3.03
2019-05-28T17:53:53.375Z,3.20
2019-05-28T17:56:20.950Z,3.40
2019-05-28T17:58:48.564Z,2.70
2019-05-28T18:01:16.061Z,2.67
2019-05-28T18:03:43.968Z,2.27
2019-05-28T18:06:11.569Z,1.90
2019-05-28T18:08:39.231Z,4.70
2019-05-28T18:11:07.360Z,2.53
2019-05-28T18:13:35.029Z,2.27
2019-05-28T18:16:02.838Z,2.33
2019-05-28T18:18:30.468Z,2.47
2019-05-28T18:20:58.629Z,2.40
2019-05-28T18:23:26.125Z,1.43
2019-05-28T18:25:53.841Z,2.50
2019-05-28T18:28:21.546Z,2.40
2019-05-28T18:30:49.076Z,2.63
2019-05-28T18:33:16.598Z,3.20
2019-05-28T18:35:44.252Z,2.57
2019-05-28T18:38:12.432Z,3.17
2019-05-28T18:40:40.916Z,3.10
2019-05-28T18:43:08.605Z,4.00
2019-05-28T18:45:36.620Z,4.30
2019-05-28T18:48:04.531Z,2.67
2019-05-28T18:50:32.967Z,2.70
2019-05-28T18:53:01.259Z,2.40
2019-05-28T18:55:29.606Z,2.10
2019-05-28T18:57:57.677Z,2.67
2019-05-28T19:00:25.833Z,1.40
2019-05-28T19:02:53.726Z,4.43
2019-05-28T19:05:21.319Z,4.50
2019-05-28T19:07:49.405Z,1.97
2019-05-28T19:10:18.198Z,1.70
2019-05-28T19:12:45.952Z,4.37
2019-05-28T19:15:14.327Z,2.37
2019-05-28T19:17:41.985Z,1.40
2019-05-28T19:20:09.924Z,2.00
2019-05-28T19:22:37.962Z,3.40
2019-05-28T19:25:07.421Z,2.80
2019-05-28T19:27:35.595Z,2.83
2019-05-28T19:30:05.498Z,2.30
2019-05-28T19:32:33.585Z,2.77
2019-05-28T19:35:01.471Z,3.53
2019-05-28T19:37:29.291Z,2.70
2019-05-28T19:39:57.086Z,1.93
2019-05-28T19:42:25.217Z,3.40
2019-05-28T19:44:52.828Z,2.20
2019-05-28T19:47:20.363Z,2.83
2019-05-28T19:49:47.999Z,2.20
2019-05-28T19:52:16.900Z,2.63
2019-05-28T19:54:45.418Z,3.30
2019-05-28T19:57:13.048Z,3.90
2019-05-28T19:59:40.681Z,4.33
2019-05-28T20:02:08.390Z,5.10
2019-05-28T20:04:35.892Z,4.00
2019-05-28T20:07:03.434Z,3.73
2019-05-28T20:09:31.011Z,3.20
2019-05-28T20:12:11.467Z,4.70
2019-05-28T20:14:28.475Z,3.10
2019-05-28T20:16:56.097Z,3.03
2019-05-28T20:19:24.071Z,3.10
2019-05-28T20:21:53.822Z,2.90
2019-05-28T20:24:21.693Z,3.23
2019-05-28T20:26:49.948Z,3.73
2019-05-28T20:29:17.648Z,2.77
2019-05-28T20:31:45.662Z,4.10
2019-05-28T20:34:16.366Z,4.40
2019-05-28T20:36:43.803Z,3.20
2019-05-28T20:39:11.716Z,5.00
2019-05-28T20:41:39.566Z,3.23
2019-05-28T20:44:08.371Z,3.13
2019-05-28T20:46:35.987Z,3.90
2019-05-28T20:49:04.602Z,3.33
2019-05-28T20:51:32.285Z,3.47
2019-05-28T20:53:59.751Z,5.70
2019-05-28T20:56:27.614Z,5.80
2019-05-28T20:58:55.931Z,5.37
2019-05-28T21:01:23.492Z,4.20
2019-05-28T21:03:51.746Z,3.70
2019-05-28T21:06:19.374Z,3.40
2019-05-28T21:08:47.978Z,3.27
2019-05-28T21:11:15.650Z,3.50
2019-05-28T21:13:43.127Z,2.83
2019-05-28T21:16:10.505Z,2.70
2019-05-28T21:18:37.845Z,3.87
2019-05-28T21:21:07.465Z,3.35
2019-05-28T21:23:35.293Z,4.35
2019-05-28T21:26:02.662Z,7.10
2019-05-28T21:28:30.141Z,2.95
2019-05-28T21:30:58.639Z,3.30
2019-05-28T21:33:26.418Z,3.97
2019-05-28T21:35:55.224Z,3.62
2019-05-28T21:38:22.801Z,4.37
2019-05-28T21:40:51.461Z,3.25
2019-05-28T21:43:19.183Z,3.80
2019-05-28T21:45:46.646Z,3.83
2019-05-28T21:48:14.001Z,5.47
2019-05-28T21:50:41.486Z,8.48
2019-05-28T21:53:08.911Z,11.38
2019-05-28T21:55:36.294Z,11.50
2019-05-28T21:58:04.048Z,10.45
2019-05-28T22:00:42.375Z,10.15
2019-05-28T22:03:09.854Z,8.08
2019-05-28T22:05:37.718Z,6.08
2019-05-28T22:08:05.147Z,6.62
2019-05-28T22:10:32.621Z,5.17
2019-05-28T22:13:16.663Z,4.65
2019-05-28T22:15:29.338Z,5.30
2019-05-28T22:17:56.676Z,3.77
2019-05-28T22:20:24.216Z,3.83
2019-05-28T22:22:51.572Z,3.98
2019-05-28T22:25:19.183Z,4.67
2019-05-28T22:27:46.527Z,4.17
2019-05-28T22:30:13.984Z,4.35
2019-05-28T22:32:41.295Z,4.05
2019-05-28T22:35:09.172Z,4.75
2019-05-28T22:37:36.481Z,4.00
2019-05-28T22:40:05.835Z,4.53
2019-05-28T22:42:33.513Z,4.58
2019-05-28T22:45:01.182Z,4.80
2019-05-28T22:47:28.944Z,4.33
2019-05-28T22:50:14.789Z,3.92
2019-05-28T22:52:25.521Z,4.70
2019-05-28T22:54:52.849Z,4.12
2019-05-28T22:57:20.255Z,4.20
2019-05-28T22:59:47.657Z,5.87
2019-05-28T23:02:15.043Z,4.83
2019-05-28T23:04:42.760Z,4.87
2019-05-28T23:07:10.239Z,6.60
2019-05-28T23:09:37.661Z,5.78
2019-05-28T23:12:06.378Z,4.37
2019-05-28T23:14:34.045Z,5.17
2019-05-28T23:17:02.243Z,4.70
2019-05-28T23:19:29.743Z,5.00
2019-05-28T23:21:57.205Z,4.90
2019-05-28T23:24:24.583Z,5.55
2019-05-28T23:26:52.183Z,4.90
2019-05-28T23:29:19.521Z,4.75
2019-05-28T23:31:46.808Z,5.75
2019-05-28T23:34:14.139Z,4.65
2019-05-28T23:36:41.491Z,6.50
2019-05-28T23:39:09.119Z,5.25
2019-05-28T23:41:36.653Z,5.25
2019-05-28T23:44:03.985Z,5.75
2019-05-28T23:46:31.395Z,5.17
2019-05-28T23:48:58.732Z,4.90
2019-05-28T23:51:26.204Z,4.97
2019-05-28T23:53:53.601Z,4.65
2019-05-28T23:56:20.941Z,4.95
2019-05-28T23:58:48.387Z,5.25
